sensor_id;sensor_type;location;lat;lon;timestamp;P1;durP1;ratioP1;P2;durP2;ratioP2
28022;SDS011;67403;50.104;8.758;2023-05-14T00:01:52;10.65;;;7.53;;
28022;SDS011;67403;50.104;8.758;2023-05-14T00:04:19;13.70;;;8.43;;
28022;SDS011;67403;50.104;8.758;2023-05-14T00:06:48;14.27;;;8.40;;
28022;SDS011;67403;50.104;8.758;2023-05-14T00:09:15;19.70;;;8.10;;
28022;SDS011;67403;50.104;8.758;2023-05-14T00:11:43;11.85;;;7.70;;
28022;SDS011;67403;50.104;8.758;2023-05-14T00:14:10;13.13;;;8.60;;
28022;SDS011;67403;50.104;8.758;2023-05-14T00:16:37;10.80;;;8.05;;
28022;SDS011;67403;50.104;8.758;2023-05-14T00:19:04;15.00;;;7.85;;
28022;SDS011;67403;50.104;8.758;2023-05-14T00:21:30;11.75;;;8.05;;
28022;SDS011;67403;50.104;8.758;2023-05-14T00:23:57;13.38;;;8.15;;
28022;SDS011;67403;50.104;8.758;2023-05-14T00:26:24;10.70;;;7.97;;
28022;SDS011;67403;50.104;8.758;2023-05-14T00:28:52;9.35;;;7.25;;
28022;SDS011;67403;50.104;8.758;2023-05-14T00:31:19;11.63;;;7.10;;
28022;SDS011;67403;50.104;8.758;2023-05-14T00:33:46;12.40;;;7.53;;
28022;SDS011;67403;50.104;8.758;2023-05-14T00:36:13;13.85;;;8.32;;
28022;SDS011;67403;50.104;8.758;2023-05-14T00:38:40;12.55;;;7.40;;
28022;SDS011;67403;50.104;8.758;2023-05-14T00:41:07;9.80;;;6.90;;
28022;SDS011;67403;50.104;8.758;2023-05-14T00:43:34;12.00;;;6.93;;
28022;SDS011;67403;50.104;8.758;2023-05-14T00:46:02;10.90;;;7.30;;
28022;SDS011;67403;50.104;8.758;2023-05-14T00:48:29;11.20;;;6.95;;
28022;SDS011;67403;50.104;8.758;2023-05-14T00:50:56;12.85;;;7.32;;
28022;SDS011;67403;50.104;8.758;2023-05-14T00:53:23;9.55;;;6.78;;
28022;SDS011;67403;50.104;8.758;2023-05-14T00:55:50;8.40;;;6.35;;
28022;SDS011;67403;50.104;8.758;2023-05-14T00:58:17;10.18;;;6.50;;
28022;SDS011;67403;50.104;8.758;2023-05-14T01:00:45;10.60;;;6.78;;
28022;SDS011;67403;50.104;8.758;2023-05-14T01:03:13;10.57;;;6.90;;
28022;SDS011;67403;50.104;8.758;2023-05-14T01:05:42;7.93;;;6.45;;
28022;SDS011;67403;50.104;8.758;2023-05-14T01:08:20;9.45;;;6.95;;
28022;SDS011;67403;50.104;8.758;2023-05-14T01:10:55;8.77;;;6.53;;
28022;SDS011;67403;50.104;8.758;2023-05-14T01:13:30;12.60;;;7.18;;
28022;SDS011;67403;50.104;8.758;2023-05-14T01:16:05;10.30;;;6.97;;
28022;SDS011;67403;50.104;8.758;2023-05-14T01:18:38;11.85;;;7.78;;
28022;SDS011;67403;50.104;8.758;2023-05-14T01:21:17;13.05;;;7.35;;
28022;SDS011;67403;50.104;8.758;2023-05-14T01:24:05;13.05;;;7.55;;
28022;SDS011;67403;50.104;8.758;2023-05-14T01:26:33;12.07;;;7.22;;
28022;SDS011;67403;50.104;8.758;2023-05-14T01:29:01;10.52;;;7.82;;
28022;SDS011;67403;50.104;8.758;2023-05-14T01:31:33;11.93;;;7.63;;
28022;SDS011;67403;50.104;8.758;2023-05-14T01:34:03;12.60;;;7.80;;
28022;SDS011;67403;50.104;8.758;2023-05-14T01:36:31;11.82;;;7.72;;
28022;SDS011;67403;50.104;8.758;2023-05-14T01:39:01;11.65;;;7.50;;
28022;SDS011;67403;50.104;8.758;2023-05-14T01:41:28;13.00;;;7.97;;
28022;SDS011;67403;50.104;8.758;2023-05-14T01:43:57;12.90;;;7.82;;
28022;SDS011;67403;50.104;8.758;2023-05-14T01:46:24;15.38;;;8.07;;
28022;SDS011;67403;50.104;8.758;2023-05-14T01:48:51;13.25;;;7.75;;
28022;SDS011;67403;50.104;8.758;2023-05-14T01:51:17;11.63;;;8.48;;
28022;SDS011;67403;50.104;8.758;2023-05-14T01:53:44;9.52;;;7.38;;
28022;SDS011;67403;50.104;8.758;2023-05-14T01:56:13;11.23;;;7.47;;
28022;SDS011;67403;50.104;8.758;2023-05-14T01:58:39;12.23;;;6.97;;
28022;SDS011;67403;50.104;8.758;2023-05-14T02:01:06;14.52;;;7.55;;
28022;SDS011;67403;50.104;8.758;2023-05-14T02:03:33;9.32;;;6.40;;
28022;SDS011;67403;50.104;8.758;2023-05-14T02:06:00;13.50;;;7.13;;
28022;SDS011;67403;50.104;8.758;2023-05-14T02:08:27;10.90;;;7.22;;
28022;SDS011;67403;50.104;8.758;2023-05-14T02:10:54;9.35;;;6.63;;
28022;SDS011;67403;50.104;8.758;2023-05-14T02:13:22;10.55;;;7.22;;
28022;SDS011;67403;50.104;8.758;2023-05-14T02:15:50;10.93;;;7.47;;
28022;SDS011;67403;50.104;8.758;2023-05-14T02:18:17;12.63;;;7.78;;
28022;SDS011;67403;50.104;8.758;2023-05-14T02:20:43;10.77;;;7.88;;
28022;SDS011;67403;50.104;8.758;2023-05-14T02:23:11;21.27;;;7.78;;
28022;SDS011;67403;50.104;8.758;2023-05-14T02:25:38;13.45;;;7.90;;
28022;SDS011;67403;50.104;8.758;2023-05-14T02:28:05;13.68;;;8.00;;
28022;SDS011;67403;50.104;8.758;2023-05-14T02:30:33;11.75;;;7.78;;
28022;SDS011;67403;50.104;8.758;2023-05-14T02:33:00;12.88;;;8.52;;
28022;SDS011;67403;50.104;8.758;2023-05-14T02:35:27;12.43;;;8.20;;
28022;SDS011;67403;50.104;8.758;2023-05-14T02:37:53;11.57;;;8.10;;
28022;SDS011;67403;50.104;8.758;2023-05-14T02:40:20;15.50;;;8.45;;
28022;SDS011;67403;50.104;8.758;2023-05-14T02:42:47;14.18;;;7.70;;
28022;SDS011;67403;50.104;8.758;2023-05-14T02:45:14;14.82;;;8.60;;
28022;SDS011;67403;50.104;8.758;2023-05-14T02:47:42;12.10;;;7.63;;
28022;SDS011;67403;50.104;8.758;2023-05-14T02:50:09;12.65;;;8.35;;
28022;SDS011;67403;50.104;8.758;2023-05-14T02:52:36;10.75;;;7.65;;
28022;SDS011;67403;50.104;8.758;2023-05-14T02:55:03;12.52;;;7.90;;
28022;SDS011;67403;50.104;8.758;2023-05-14T02:57:31;14.07;;;8.60;;
28022;SDS011;67403;50.104;8.758;2023-05-14T02:59:58;13.43;;;8.93;;
28022;SDS011;67403;50.104;8.758;2023-05-14T03:02:24;16.15;;;8.15;;
28022;SDS011;67403;50.104;8.758;2023-05-14T03:04:53;15.93;;;8.38;;
28022;SDS011;67403;50.104;8.758;2023-05-14T03:07:19;13.80;;;8.63;;
28022;SDS011;67403;50.104;8.758;2023-05-14T03:09:46;14.32;;;9.00;;
28022;SDS011;67403;50.104;8.758;2023-05-14T03:12:13;14.30;;;9.15;;
28022;SDS011;67403;50.104;8.758;2023-05-14T03:14:40;14.18;;;8.52;;
28022;SDS011;67403;50.104;8.758;2023-05-14T03:17:07;13.85;;;9.25;;
28022;SDS011;67403;50.104;8.758;2023-05-14T03:19:34;13.88;;;9.52;;
28022;SDS011;67403;50.104;8.758;2023-05-14T03:22:03;13.32;;;8.55;;
28022;SDS011;67403;50.104;8.758;2023-05-14T03:24:30;14.15;;;9.02;;
28022;SDS011;67403;50.104;8.758;2023-05-14T03:26:56;15.50;;;10.00;;
28022;SDS011;67403;50.104;8.758;2023-05-14T03:29:23;12.65;;;8.50;;
28022;SDS011;67403;50.104;8.758;2023-05-14T03:31:50;14.45;;;9.02;;
28022;SDS011;67403;50.104;8.758;2023-05-14T03:34:18;10.75;;;7.93;;
28022;SDS011;67403;50.104;8.758;2023-05-14T03:36:45;13.18;;;8.27;;
28022;SDS011;67403;50.104;8.758;2023-05-14T03:39:13;11.13;;;8.18;;
28022;SDS011;67403;50.104;8.758;2023-05-14T03:41:43;12.70;;;8.50;;
28022;SDS011;67403;50.104;8.758;2023-05-14T03:44:10;13.82;;;9.05;;
28022;SDS011;67403;50.104;8.758;2023-05-14T03:46:37;16.27;;;8.48;;
28022;SDS011;67403;50.104;8.758;2023-05-14T03:49:05;17.13;;;8.05;;
28022;SDS011;67403;50.104;8.758;2023-05-14T03:51:32;15.52;;;8.43;;
28022;SDS011;67403;50.104;8.758;2023-05-14T03:53:59;11.18;;;7.85;;
28022;SDS011;67403;50.104;8.758;2023-05-14T03:56:27;12.90;;;9.00;;
28022;SDS011;67403;50.104;8.758;2023-05-14T03:58:54;12.82;;;8.57;;
28022;SDS011;67403;50.104;8.758;2023-05-14T04:01:21;11.88;;;8.25;;
28022;SDS011;67403;50.104;8.758;2023-05-14T04:03:48;11.93;;;7.82;;
28022;SDS011;67403;50.104;8.758;2023-05-14T04:06:15;13.05;;;8.05;;
28022;SDS011;67403;50.104;8.758;2023-05-14T04:08:42;11.90;;;8.30;;
28022;SDS011;67403;50.104;8.758;2023-05-14T04:11:08;11.65;;;7.90;;
28022;SDS011;67403;50.104;8.758;2023-05-14T04:13:37;15.13;;;8.25;;
28022;SDS011;67403;50.104;8.758;2023-05-14T04:16:04;12.35;;;8.07;;
28022;SDS011;67403;50.104;8.758;2023-05-14T04:18:31;14.85;;;8.77;;
28022;SDS011;67403;50.104;8.758;2023-05-14T04:20:59;14.52;;;8.48;;
28022;SDS011;67403;50.104;8.758;2023-05-14T04:23:26;14.27;;;8.57;;
28022;SDS011;67403;50.104;8.758;2023-05-14T04:25:53;11.05;;;8.05;;
28022;SDS011;67403;50.104;8.758;2023-05-14T04:28:20;16.83;;;8.27;;
28022;SDS011;67403;50.104;8.758;2023-05-14T04:30:48;12.15;;;8.27;;
28022;SDS011;67403;50.104;8.758;2023-05-14T04:33:15;12.57;;;8.30;;
28022;SDS011;67403;50.104;8.758;2023-05-14T04:35:42;13.68;;;8.77;;
28022;SDS011;67403;50.104;8.758;2023-05-14T04:38:09;13.45;;;8.38;;
28022;SDS011;67403;50.104;8.758;2023-05-14T04:40:38;12.45;;;8.07;;
28022;SDS011;67403;50.104;8.758;2023-05-14T04:43:05;15.25;;;8.13;;
28022;SDS011;67403;50.104;8.758;2023-05-14T04:45:32;15.02;;;7.78;;
28022;SDS011;67403;50.104;8.758;2023-05-14T04:48:01;11.75;;;6.95;;
28022;SDS011;67403;50.104;8.758;2023-05-14T04:50:28;11.23;;;7.68;;
28022;SDS011;67403;50.104;8.758;2023-05-14T04:52:54;12.43;;;7.95;;
28022;SDS011;67403;50.104;8.758;2023-05-14T04:55:21;12.73;;;7.72;;
28022;SDS011;67403;50.104;8.758;2023-05-14T04:57:48;10.73;;;7.55;;
28022;SDS011;67403;50.104;8.758;2023-05-14T05:00:15;10.40;;;7.68;;
28022;SDS011;67403;50.104;8.758;2023-05-14T05:02:43;11.48;;;7.55;;
28022;SDS011;67403;50.104;8.758;2023-05-14T05:05:11;15.43;;;8.10;;
28022;SDS011;67403;50.104;8.758;2023-05-14T05:07:38;10.77;;;7.47;;
28022;SDS011;67403;50.104;8.758;2023-05-14T05:10:05;12.85;;;8.23;;
28022;SDS011;67403;50.104;8.758;2023-05-14T05:12:33;13.27;;;8.40;;
28022;SDS011;67403;50.104;8.758;2023-05-14T05:15:00;13.77;;;8.20;;
28022;SDS011;67403;50.104;8.758;2023-05-14T05:17:27;12.18;;;8.00;;
28022;SDS011;67403;50.104;8.758;2023-05-14T05:19:55;14.00;;;7.78;;
28022;SDS011;67403;50.104;8.758;2023-05-14T05:22:23;12.77;;;7.78;;
28022;SDS011;67403;50.104;8.758;2023-05-14T05:24:50;9.75;;;7.20;;
28022;SDS011;67403;50.104;8.758;2023-05-14T05:27:17;11.50;;;7.70;;
28022;SDS011;67403;50.104;8.758;2023-05-14T05:29:45;10.32;;;7.28;;
28022;SDS011;67403;50.104;8.758;2023-05-14T05:32:12;11.02;;;7.45;;
28022;SDS011;67403;50.104;8.758;2023-05-14T05:34:39;13.57;;;7.57;;
28022;SDS011;67403;50.104;8.758;2023-05-14T05:37:06;12.10;;;7.40;;
28022;SDS011;67403;50.104;8.758;2023-05-14T05:39:38;14.18;;;7.75;;
28022;SDS011;67403;50.104;8.758;2023-05-14T05:42:05;14.02;;;7.53;;
28022;SDS011;67403;50.104;8.758;2023-05-14T05:44:32;10.15;;;6.82;;
28022;SDS011;67403;50.104;8.758;2023-05-14T05:46:59;17.65;;;8.35;;
28022;SDS011;67403;50.104;8.758;2023-05-14T05:49:26;10.27;;;7.35;;
28022;SDS011;67403;50.104;8.758;2023-05-14T05:51:53;8.07;;;6.25;;
28022;SDS011;67403;50.104;8.758;2023-05-14T05:54:21;14.07;;;7.28;;
28022;SDS011;67403;50.104;8.758;2023-05-14T05:56:50;10.85;;;6.57;;
28022;SDS011;67403;50.104;8.758;2023-05-14T05:59:17;9.80;;;7.22;;
28022;SDS011;67403;50.104;8.758;2023-05-14T06:01:43;9.43;;;7.30;;
28022;SDS011;67403;50.104;8.758;2023-05-14T06:04:10;11.55;;;7.05;;
28022;SDS011;67403;50.104;8.758;2023-05-14T06:06:37;11.20;;;7.18;;
28022;SDS011;67403;50.104;8.758;2023-05-14T06:09:04;11.07;;;7.22;;
28022;SDS011;67403;50.104;8.758;2023-05-14T06:11:33;10.63;;;7.00;;
28022;SDS011;67403;50.104;8.758;2023-05-14T06:14:01;9.30;;;7.35;;
28022;SDS011;67403;50.104;8.758;2023-05-14T06:16:28;9.35;;;7.20;;
28022;SDS011;67403;50.104;8.758;2023-05-14T06:18:55;12.23;;;7.30;;
28022;SDS011;67403;50.104;8.758;2023-05-14T06:21:22;10.50;;;7.45;;
28022;SDS011;67403;50.104;8.758;2023-05-14T06:23:49;11.32;;;7.40;;
28022;SDS011;67403;50.104;8.758;2023-05-14T06:26:16;10.13;;;7.72;;
28022;SDS011;67403;50.104;8.758;2023-05-14T06:28:43;13.35;;;9.02;;
28022;SDS011;67403;50.104;8.758;2023-05-14T06:31:11;14.05;;;8.73;;
28022;SDS011;67403;50.104;8.758;2023-05-14T06:33:38;11.20;;;7.85;;
28022;SDS011;67403;50.104;8.758;2023-05-14T06:36:06;11.07;;;7.32;;
28022;SDS011;67403;50.104;8.758;2023-05-14T06:38:34;9.00;;;7.03;;
28022;SDS011;67403;50.104;8.758;2023-05-14T06:41:01;9.30;;;6.45;;
28022;SDS011;67403;50.104;8.758;2023-05-14T06:43:28;8.93;;;6.28;;
28022;SDS011;67403;50.104;8.758;2023-05-14T06:45:55;9.77;;;6.72;;
28022;SDS011;67403;50.104;8.758;2023-05-14T06:48:23;8.25;;;6.72;;
28022;SDS011;67403;50.104;8.758;2023-05-14T06:50:51;8.93;;;6.57;;
28022;SDS011;67403;50.104;8.758;2023-05-14T06:53:18;9.10;;;5.97;;
28022;SDS011;67403;50.104;8.758;2023-05-14T06:55:46;7.05;;;5.72;;
28022;SDS011;67403;50.104;8.758;2023-05-14T06:58:13;8.60;;;6.30;;
28022;SDS011;67403;50.104;8.758;2023-05-14T07:00:40;9.30;;;6.00;;
28022;SDS011;67403;50.104;8.758;2023-05-14T07:03:06;9.45;;;6.20;;
28022;SDS011;67403;50.104;8.758;2023-05-14T07:05:35;6.80;;;5.28;;
28022;SDS011;67403;50.104;8.758;2023-05-14T07:08:02;8.88;;;5.90;;
28022;SDS011;67403;50.104;8.758;2023-05-14T07:10:29;9.70;;;5.90;;
28022;SDS011;67403;50.104;8.758;2023-05-14T07:12:56;8.45;;;6.30;;
28022;SDS011;67403;50.104;8.758;2023-05-14T07:15:23;9.27;;;5.90;;
28022;SDS011;67403;50.104;8.758;2023-05-14T07:17:50;8.75;;;6.05;;
28022;SDS011;67403;50.104;8.758;2023-05-14T07:20:17;7.10;;;5.15;;
28022;SDS011;67403;50.104;8.758;2023-05-14T07:22:45;6.57;;;5.45;;
28022;SDS011;67403;50.104;8.758;2023-05-14T07:25:12;7.85;;;5.28;;
28022;SDS011;67403;50.104;8.758;2023-05-14T07:27:39;8.52;;;5.85;;
28022;SDS011;67403;50.104;8.758;2023-05-14T07:30:06;8.82;;;5.38;;
28022;SDS011;67403;50.104;8.758;2023-05-14T07:32:33;6.88;;;4.93;;
28022;SDS011;67403;50.104;8.758;2023-05-14T07:35:00;8.63;;;5.00;;
28022;SDS011;67403;50.104;8.758;2023-05-14T07:37:28;7.25;;;4.93;;
28022;SDS011;67403;50.104;8.758;2023-05-14T07:39:56;7.22;;;5.35;;
28022;SDS011;67403;50.104;8.758;2023-05-14T07:42:23;7.28;;;5.03;;
28022;SDS011;67403;50.104;8.758;2023-05-14T07:44:51;7.10;;;5.68;;
28022;SDS011;67403;50.104;8.758;2023-05-14T07:47:18;6.40;;;5.05;;
28022;SDS011;67403;50.104;8.758;2023-05-14T07:49:45;7.75;;;5.00;;
28022;SDS011;67403;50.104;8.758;2023-05-14T07:52:11;8.10;;;5.25;;
28022;SDS011;67403;50.104;8.758;2023-05-14T07:54:38;5.80;;;4.60;;
28022;SDS011;67403;50.104;8.758;2023-05-14T07:57:07;5.05;;;4.13;;
28022;SDS011;67403;50.104;8.758;2023-05-14T07:59:34;4.80;;;3.78;;
28022;SDS011;67403;50.104;8.758;2023-05-14T08:02:00;5.50;;;4.30;;
28022;SDS011;67403;50.104;8.758;2023-05-14T08:04:27;6.60;;;4.43;;
28022;SDS011;67403;50.104;8.758;2023-05-14T08:06:55;6.88;;;4.05;;
28022;SDS011;67403;50.104;8.758;2023-05-14T08:09:22;5.15;;;3.72;;
28022;SDS011;67403;50.104;8.758;2023-05-14T08:11:49;7.03;;;3.58;;
28022;SDS011;67403;50.104;8.758;2023-05-14T08:14:18;4.28;;;3.47;;
28022;SDS011;67403;50.104;8.758;2023-05-14T08:16:45;4.45;;;3.58;;
28022;SDS011;67403;50.104;8.758;2023-05-14T08:19:13;5.65;;;3.47;;
28022;SDS011;67403;50.104;8.758;2023-05-14T08:21:41;4.60;;;3.58;;
28022;SDS011;67403;50.104;8.758;2023-05-14T08:24:08;4.55;;;3.40;;
28022;SDS011;67403;50.104;8.758;2023-05-14T08:26:35;5.18;;;3.17;;
28022;SDS011;67403;50.104;8.758;2023-05-14T08:29:03;6.13;;;3.47;;
28022;SDS011;67403;50.104;8.758;2023-05-14T08:31:31;4.05;;;3.45;;
28022;SDS011;67403;50.104;8.758;2023-05-14T08:33:58;4.93;;;3.42;;
28022;SDS011;67403;50.104;8.758;2023-05-14T08:36:25;6.30;;;3.78;;
28022;SDS011;67403;50.104;8.758;2023-05-14T08:38:52;5.20;;;3.97;;
28022;SDS011;67403;50.104;8.758;2023-05-14T08:41:18;6.63;;;5.00;;
28022;SDS011;67403;50.104;8.758;2023-05-14T08:43:49;6.25;;;4.00;;
28022;SDS011;67403;50.104;8.758;2023-05-14T08:46:23;3.95;;;3.28;;
28022;SDS011;67403;50.104;8.758;2023-05-14T08:48:54;6.95;;;3.53;;
28022;SDS011;67403;50.104;8.758;2023-05-14T08:51:23;5.15;;;3.35;;
28022;SDS011;67403;50.104;8.758;2023-05-14T08:53:50;5.35;;;3.45;;
28022;SDS011;67403;50.104;8.758;2023-05-14T08:56:17;3.65;;;2.97;;
28022;SDS011;67403;50.104;8.758;2023-05-14T08:58:45;3.58;;;2.80;;
28022;SDS011;67403;50.104;8.758;2023-05-14T09:01:12;7.65;;;3.30;;
28022;SDS011;67403;50.104;8.758;2023-05-14T09:03:39;5.43;;;2.95;;
28022;SDS011;67403;50.104;8.758;2023-05-14T09:06:08;9.85;;;5.97;;
28022;SDS011;67403;50.104;8.758;2023-05-14T09:08:36;3.63;;;2.85;;
28022;SDS011;67403;50.104;8.758;2023-05-14T09:11:03;4.88;;;2.95;;
28022;SDS011;67403;50.104;8.758;2023-05-14T09:13:31;4.80;;;2.90;;
28022;SDS011;67403;50.104;8.758;2023-05-14T09:15:57;4.18;;;2.65;;
28022;SDS011;67403;50.104;8.758;2023-05-14T09:18:25;3.83;;;2.67;;
28022;SDS011;67403;50.104;8.758;2023-05-14T09:20:52;4.97;;;3.85;;
28022;SDS011;67403;50.104;8.758;2023-05-14T09:23:21;4.50;;;3.88;;
28022;SDS011;67403;50.104;8.758;2023-05-14T09:25:51;2.92;;;2.63;;
28022;SDS011;67403;50.104;8.758;2023-05-14T09:28:18;6.32;;;2.97;;
28022;SDS011;67403;50.104;8.758;2023-05-14T09:30:46;8.65;;;3.67;;
28022;SDS011;67403;50.104;8.758;2023-05-14T09:33:24;3.03;;;2.53;;
28022;SDS011;67403;50.104;8.758;2023-05-14T09:35:53;4.30;;;2.58;;
28022;SDS011;67403;50.104;8.758;2023-05-14T09:38:26;3.92;;;2.20;;
28022;SDS011;67403;50.104;8.758;2023-05-14T09:40:54;2.67;;;2.42;;
28022;SDS011;67403;50.104;8.758;2023-05-14T09:43:21;5.70;;;5.07;;
28022;SDS011;67403;50.104;8.758;2023-05-14T09:45:47;3.45;;;3.15;;
28022;SDS011;67403;50.104;8.758;2023-05-14T09:48:14;4.38;;;3.97;;
28022;SDS011;67403;50.104;8.758;2023-05-14T09:50:41;4.30;;;2.80;;
28022;SDS011;67403;50.104;8.758;2023-05-14T09:53:09;13.32;;;8.25;;
28022;SDS011;67403;50.104;8.758;2023-05-14T09:55:37;3.55;;;2.88;;
28022;SDS011;67403;50.104;8.758;2023-05-14T09:58:04;4.63;;;2.97;;
28022;SDS011;67403;50.104;8.758;2023-05-14T10:00:31;3.53;;;2.90;;
28022;SDS011;67403;50.104;8.758;2023-05-14T10:02:59;5.53;;;3.40;;
28022;SDS011;67403;50.104;8.758;2023-05-14T10:05:31;4.60;;;3.15;;
28022;SDS011;67403;50.104;8.758;2023-05-14T10:08:00;3.47;;;2.47;;
28022;SDS011;67403;50.104;8.758;2023-05-14T10:10:30;5.45;;;3.65;;
28022;SDS011;67403;50.104;8.758;2023-05-14T10:13:00;3.17;;;2.70;;
28022;SDS011;67403;50.104;8.758;2023-05-14T10:15:32;2.30;;;2.10;;
28022;SDS011;67403;50.104;8.758;2023-05-14T10:18:03;2.30;;;2.10;;
28022;SDS011;67403;50.104;8.758;2023-05-14T10:20:41;2.45;;;2.15;;
28022;SDS011;67403;50.104;8.758;2023-05-14T10:23:09;2.80;;;2.38;;
28022;SDS011;67403;50.104;8.758;2023-05-14T10:25:36;2.22;;;1.95;;
28022;SDS011;67403;50.104;8.758;2023-05-14T10:28:05;4.85;;;3.50;;
28022;SDS011;67403;50.104;8.758;2023-05-14T10:30:32;3.33;;;2.97;;
28022;SDS011;67403;50.104;8.758;2023-05-14T10:33:05;4.45;;;3.50;;
28022;SDS011;67403;50.104;8.758;2023-05-14T10:38:21;5.22;;;3.60;;
28022;SDS011;67403;50.104;8.758;2023-05-14T10:40:48;2.53;;;2.25;;
28022;SDS011;67403;50.104;8.758;2023-05-14T10:43:17;2.45;;;2.20;;
28022;SDS011;67403;50.104;8.758;2023-05-14T10:45:45;2.65;;;2.45;;
28022;SDS011;67403;50.104;8.758;2023-05-14T10:48:12;2.40;;;2.20;;
28022;SDS011;67403;50.104;8.758;2023-05-14T10:50:40;3.05;;;2.42;;
28022;SDS011;67403;50.104;8.758;2023-05-14T10:53:09;5.80;;;3.50;;
28022;SDS011;67403;50.104;8.758;2023-05-14T10:55:38;3.13;;;2.28;;
28022;SDS011;67403;50.104;8.758;2023-05-14T10:58:05;3.78;;;2.58;;
28022;SDS011;67403;50.104;8.758;2023-05-14T11:00:33;8.07;;;5.22;;
28022;SDS011;67403;50.104;8.758;2023-05-14T11:03:02;3.30;;;2.97;;
28022;SDS011;67403;50.104;8.758;2023-05-14T11:05:30;2.53;;;2.30;;
28022;SDS011;67403;50.104;8.758;2023-05-14T11:07:58;2.70;;;2.40;;
28022;SDS011;67403;50.104;8.758;2023-05-14T11:10:26;3.17;;;2.65;;
28022;SDS011;67403;50.104;8.758;2023-05-14T11:12:55;3.75;;;3.28;;
28022;SDS011;67403;50.104;8.758;2023-05-14T11:15:23;3.75;;;2.92;;
28022;SDS011;67403;50.104;8.758;2023-05-14T11:17:53;2.33;;;2.13;;
28022;SDS011;67403;50.104;8.758;2023-05-14T11:20:20;3.63;;;2.83;;
28022;SDS011;67403;50.104;8.758;2023-05-14T11:22:47;2.65;;;2.22;;
28022;SDS011;67403;50.104;8.758;2023-05-14T11:25:15;3.97;;;2.53;;
28022;SDS011;67403;50.104;8.758;2023-05-14T11:27:43;3.00;;;2.30;;
28022;SDS011;67403;50.104;8.758;2023-05-14T11:30:12;2.20;;;2.00;;
28022;SDS011;67403;50.104;8.758;2023-05-14T11:32:39;2.53;;;2.10;;
28022;SDS011;67403;50.104;8.758;2023-05-14T11:35:08;3.63;;;2.97;;
28022;SDS011;67403;50.104;8.758;2023-05-14T11:37:35;2.38;;;2.17;;
28022;SDS011;67403;50.104;8.758;2023-05-14T11:40:05;3.65;;;2.80;;
28022;SDS011;67403;50.104;8.758;2023-05-14T11:42:35;2.40;;;2.20;;
28022;SDS011;67403;50.104;8.758;2023-05-14T11:45:02;2.58;;;2.38;;
28022;SDS011;67403;50.104;8.758;2023-05-14T11:47:30;2.47;;;2.25;;
28022;SDS011;67403;50.104;8.758;2023-05-14T11:49:57;2.70;;;2.35;;
28022;SDS011;67403;50.104;8.758;2023-05-14T11:52:27;2.67;;;2.30;;
28022;SDS011;67403;50.104;8.758;2023-05-14T11:54:54;2.83;;;2.53;;
28022;SDS011;67403;50.104;8.758;2023-05-14T11:57:21;2.70;;;2.50;;
28022;SDS011;67403;50.104;8.758;2023-05-14T11:59:48;2.33;;;2.13;;
28022;SDS011;67403;50.104;8.758;2023-05-14T12:02:21;2.97;;;2.40;;
28022;SDS011;67403;50.104;8.758;2023-05-14T12:04:52;2.40;;;2.20;;
28022;SDS011;67403;50.104;8.758;2023-05-14T12:07:19;2.70;;;2.35;;
28022;SDS011;67403;50.104;8.758;2023-05-14T12:09:48;2.80;;;2.42;;
28022;SDS011;67403;50.104;8.758;2023-05-14T12:12:16;2.60;;;2.40;;
28022;SDS011;67403;50.104;8.758;2023-05-14T12:14:44;2.80;;;2.17;;
28022;SDS011;67403;50.104;8.758;2023-05-14T12:17:12;2.10;;;1.90;;
28022;SDS011;67403;50.104;8.758;2023-05-14T12:19:40;3.35;;;2.55;;
28022;SDS011;67403;50.104;8.758;2023-05-14T12:22:09;2.97;;;2.50;;
28022;SDS011;67403;50.104;8.758;2023-05-14T12:24:36;2.85;;;2.33;;
28022;SDS011;67403;50.104;8.758;2023-05-14T12:27:06;2.63;;;1.98;;
28022;SDS011;67403;50.104;8.758;2023-05-14T12:29:35;3.00;;;2.63;;
28022;SDS011;67403;50.104;8.758;2023-05-14T12:32:06;3.15;;;2.70;;
28022;SDS011;67403;50.104;8.758;2023-05-14T12:34:34;2.58;;;2.00;;
28022;SDS011;67403;50.104;8.758;2023-05-14T12:37:01;3.00;;;2.45;;
28022;SDS011;67403;50.104;8.758;2023-05-14T12:39:30;2.95;;;2.50;;
28022;SDS011;67403;50.104;8.758;2023-05-14T12:41:58;2.60;;;2.40;;
28022;SDS011;67403;50.104;8.758;2023-05-14T12:44:27;2.50;;;2.30;;
28022;SDS011;67403;50.104;8.758;2023-05-14T12:46:54;3.35;;;2.60;;
28022;SDS011;67403;50.104;8.758;2023-05-14T12:49:21;2.83;;;2.42;;
28022;SDS011;67403;50.104;8.758;2023-05-14T12:51:48;3.35;;;2.03;;
28022;SDS011;67403;50.104;8.758;2023-05-14T12:54:15;3.00;;;2.70;;
28022;SDS011;67403;50.104;8.758;2023-05-14T12:56:42;2.55;;;2.35;;
28022;SDS011;67403;50.104;8.758;2023-05-14T12:59:09;2.25;;;2.05;;
28022;SDS011;67403;50.104;8.758;2023-05-14T13:01:37;2.65;;;2.45;;
28022;SDS011;67403;50.104;8.758;2023-05-14T13:04:04;2.42;;;2.20;;
28022;SDS011;67403;50.104;8.758;2023-05-14T13:06:32;2.90;;;2.45;;
28022;SDS011;67403;50.104;8.758;2023-05-14T13:08:59;2.85;;;2.10;;
28022;SDS011;67403;50.104;8.758;2023-05-14T13:11:26;2.22;;;2.03;;
28022;SDS011;67403;50.104;8.758;2023-05-14T13:13:56;2.20;;;2.00;;
28022;SDS011;67403;50.104;8.758;2023-05-14T13:16:23;11.73;;;6.60;;
28022;SDS011;67403;50.104;8.758;2023-05-14T13:18:52;2.40;;;2.20;;
28022;SDS011;67403;50.104;8.758;2023-05-14T13:21:19;2.08;;;1.95;;
28022;SDS011;67403;50.104;8.758;2023-05-14T13:23:46;2.25;;;2.05;;
28022;SDS011;67403;50.104;8.758;2023-05-14T13:26:13;2.55;;;1.80;;
28022;SDS011;67403;50.104;8.758;2023-05-14T13:28:40;2.10;;;1.90;;
28022;SDS011;67403;50.104;8.758;2023-05-14T13:31:08;3.28;;;2.30;;
28022;SDS011;67403;50.104;8.758;2023-05-14T13:33:37;2.15;;;2.00;;
28022;SDS011;67403;50.104;8.758;2023-05-14T13:36:07;2.50;;;2.22;;
28022;SDS011;67403;50.104;8.758;2023-05-14T13:38:36;2.65;;;1.90;;
28022;SDS011;67403;50.104;8.758;2023-05-14T13:41:03;2.28;;;2.08;;
28022;SDS011;67403;50.104;8.758;2023-05-14T13:43:30;2.97;;;2.03;;
28022;SDS011;67403;50.104;8.758;2023-05-14T13:46:02;1.90;;;1.80;;
28022;SDS011;67403;50.104;8.758;2023-05-14T13:48:36;1.98;;;1.88;;
28022;SDS011;67403;50.104;8.758;2023-05-14T13:51:04;3.35;;;2.00;;
28022;SDS011;67403;50.104;8.758;2023-05-14T13:53:32;2.08;;;1.98;;
28022;SDS011;67403;50.104;8.758;2023-05-14T13:55:59;1.88;;;1.77;;
28022;SDS011;67403;50.104;8.758;2023-05-14T13:58:26;2.00;;;1.80;;
28022;SDS011;67403;50.104;8.758;2023-05-14T14:00:53;2.80;;;1.80;;
28022;SDS011;67403;50.104;8.758;2023-05-14T14:03:20;2.08;;;1.90;;
28022;SDS011;67403;50.104;8.758;2023-05-14T14:05:47;2.65;;;2.45;;
28022;SDS011;67403;50.104;8.758;2023-05-14T14:08:15;2.50;;;2.30;;
28022;SDS011;67403;50.104;8.758;2023-05-14T14:10:44;2.45;;;2.25;;
28022;SDS011;67403;50.104;8.758;2023-05-14T14:13:10;3.22;;;2.40;;
28022;SDS011;67403;50.104;8.758;2023-05-14T14:15:38;1.92;;;1.80;;
28022;SDS011;67403;50.104;8.758;2023-05-14T14:18:05;2.05;;;1.85;;
28022;SDS011;67403;50.104;8.758;2023-05-14T14:20:31;3.05;;;2.00;;
28022;SDS011;67403;50.104;8.758;2023-05-14T14:22:58;2.53;;;1.90;;
28022;SDS011;67403;50.104;8.758;2023-05-14T14:25:25;4.07;;;3.67;;
28022;SDS011;67403;50.104;8.758;2023-05-14T14:27:54;3.22;;;2.90;;
28022;SDS011;67403;50.104;8.758;2023-05-14T14:30:21;2.37;;;2.10;;
28022;SDS011;67403;50.104;8.758;2023-05-14T14:32:48;2.20;;;2.00;;
28022;SDS011;67403;50.104;8.758;2023-05-14T14:35:16;2.03;;;1.70;;
28022;SDS011;67403;50.104;8.758;2023-05-14T14:37:44;1.92;;;1.70;;
28022;SDS011;67403;50.104;8.758;2023-05-14T14:40:15;2.47;;;2.28;;
28022;SDS011;67403;50.104;8.758;2023-05-14T14:42:42;3.28;;;2.67;;
28022;SDS011;67403;50.104;8.758;2023-05-14T14:45:11;4.10;;;3.67;;
28022;SDS011;67403;50.104;8.758;2023-05-14T14:47:41;3.22;;;2.70;;
28022;SDS011;67403;50.104;8.758;2023-05-14T14:50:09;1.95;;;1.75;;